Aviation Digital Data Service (ADDS)

Output produced by METARs form (0325 UTC 30 May 2017)
found at http://www.aviationweather.gov/adds/metars/
 
KHBG 292325Z 3000/3024 23006KT P6SM VCSH SKC 
     FM300100 22003KT P6SM SCT100 BKN250 
     FM301000 00000KT P6SM BKN020 
     FM301300 09003KT P6SM -SHRA BKN050 OVC090 
     FM301500 11003KT P6SM SHRA BKN050 OVC090
       
KHIE 292320Z 3000/3024 16005KT P6SM SCT030 OVC060 
     TEMPO 3000/3004 BKN025 OVC045 
     FM300400 16009KT P6SM OVC025 
     FM300700 VRB03KT 5SM BR OVC012 
     FM301300 17006KT P6SM SCT020 BKN045 OVC070 
     FM301800 18010KT P6SM BKN045 OVC080
       
TAF KHIF 292102Z 2921/3103 VRB06KT 9999 SKC QNH2999INS TX22/3023Z TN06/3011Z
       
KHIO 300324Z 3003/3024 VRB04KT P6SM FEW060 
     FM301100 VRB03KT P6SM OVC015 
     FM302000 20005KT P6SM BKN020 BKN200
       
KHKS 292325Z 3000/3024 14006KT P6SM SKC 
     FM300100 18003KT P6SM SCT100 BKN250 
     FM300900 16003KT P6SM SHRA OVC090 
     FM301300 18003KT P6SM -SHRA BKN050 OVC090
       
KHKY 292339Z 3000/3024 VRB03KT P6SM -SHRA SCT070 OVC100 
     FM300600 00000KT 1 1/2SM BR OVC006 
     FM301000 VRB02KT P6SM BKN003 
     FM301500 26004KT P6SM BKN013 
     FM301800 24004KT P6SM BKN035
       
KHLG 292330Z 3000/3024 23005KT P6SM SCT080 
     FM301500 23008KT P6SM VCSH BKN050
       
KHLN 292320Z 3000/3024 06005KT P6SM VCTS FEW080CB SCT110 
     TEMPO 3000/3003 VRB15G30KT -TSRA BKN080CB 
     FM300300 36004KT P6SM FEW100 SCT250
       
KHND 292320Z 3000/3024 04006KT P6SM FEW150 BKN250 
     FM300400 19007KT P6SM BKN250 
     FM301500 04006KT P6SM BKN250 
     FM302100 17012KT P6SM BKN250
       
KHOB 292323Z 3000/3024 10011G16KT P6SM FEW250 
     FM300100 09007KT P6SM SCT200 
     FM300800 10008KT P6SM BKN020 
     FM301600 12010KT P6SM BKN040
       
KHON 292320Z 3000/3024 31012KT P6SM BKN100 
     FM300100 31007KT P6SM SCT100 
     FM300400 29004KT P6SM SCT060 
     FM301300 32010KT P6SM SCT060 
     FM301600 32015G23KT P6SM SCT060
       
TAF KHOP 300000Z 3000/3106 26006KT 9999 FEW050 QNH2995INS 
     BECMG 3017/3018 28010G15KT 9999 FEW060 QNH3003INS 
     BECMG 3100/3101 26006KT 9999 FEW100 QNH3003INS TX30/3021Z TN16/3009Z
       
KHOT 292320Z 3000/3024 28007KT P6SM SCT060 BKN250 
     FM300300 VRB05KT P6SM BKN250 
     FM301500 14009KT P6SM SCT100 SCT250
       
KHOU 300303Z 3003/3024 07005KT P6SM FEW025 
     FM301300 05006KT P6SM BKN020 
     FM301800 09008KT P6SM BKN035
       
KHPN 300248Z 3003/3024 12005KT P6SM SCT008 OVC012 
     FM300800 13002KT 2SM -DZ BR OVC004 
     FM301300 13004KT 3SM BR BKN008 OVC012 
     FM301500 13006KT P6SM SCT008 OVC015 
     FM301800 14007KT P6SM BKN020 AMD NOT SKED
       
KHQM 300309Z 3003/3024 29007KT 6SM BR OVC011 
     FM301500 24006KT P6SM OVC020 
     FM301800 25010KT P6SM OVC030
       
KHRL 292320Z 3000/3024 10010KT P6SM FEW035 BKN045 
     TEMPO 3009/3012 4SM BR 
     FM301500 02010KT P6SM SCT030 
     FM302100 06012KT P6SM VCSH BKN040
       
KHRO 292320Z 3000/3024 26007KT P6SM SCT150 BKN250 
     FM300300 VRB04KT P6SM SCT250 
     FM301500 27009KT P6SM SCT100 SCT250
       
TAF KHST 300000Z 3000/3106 15009KT 9999 FEW035 SCT250 QNH3002INS 
     BECMG 3008/3009 13006KT 9999 SCT012 BKN020 BKN250 QNH3004INS 
     TEMPO 3013/3018 13012KT 9000 -SHRA 
     BECMG 3017/3018 13006KT 9999 FEW028 QNH3011INS 
     BECMG 3020/3021 12009KT 9999 BKN027 QNH3007INS TX31/3017Z TN25/3008Z
       
KHSV 292336Z 3000/3024 VRB04KT P6SM SCT040 BKN080 
     FM300300 VRB03KT P6SM SCT120 BKN250 
     TEMPO 3010/3012 4SM BR 
     FM301400 VRB04KT P6SM SCT040 BKN100
       
KHTS 300226Z 3002/3024 20003KT P6SM SCT200 
     FM300400 VRB03KT P6SM SCT060 
     FM301500 25004KT P6SM SCT060
       
KHUF 292330Z 3000/3024 26010KT P6SM SCT070 
     FM300200 26006KT P6SM FEW250 
     FM301800 27010G19KT P6SM FEW120 
     FM302300 26007KT P6SM SCT120
       
KHUM 300258Z 3003/3024 25006KT P6SM VCSH OVC070 
     FM301500 10004KT P6SM SHRA VCTS BKN030CB 
     FM301600 11005KT P6SM SHRA VCTS BKN040CB
       
KHUT 292327Z 3000/3024 36011KT P6SM SCT200 
     FM301400 21009KT P6SM SCT150 
     FM302300 11005KT P6SM BKN110
       
KHVR 292320Z 3000/3024 04006KT P6SM FEW110 FEW250 
     FM302300 11011KT P6SM FEW100 FEW250
       
KHYA 300207Z 3002/3024 03006KT P6SM OVC004 
     FM300700 VRB03KT 1 1/2SM -DZ BR OVC001 
     FM301000 07004KT 3SM BR OVC008 
     FM301400 16005KT P6SM BKN020 
     FM302200 17007KT P6SM BKN025
       
KHYR 292350Z 3000/3024 27005KT P6SM VCSH SCT035 BKN070 
     FM300300 VRB04KT P6SM BKN035 OVC070 
     FM300900 24005KT P6SM BKN025 
     FM301100 27008KT P6SM VCSH BKN015 
     FM301700 27010G18KT P6SM VCSH OVC015
       
KHYS 292334Z 3000/3024 04007KT P6SM SCT200 
     FM301300 24010KT P6SM SCT130
       
KHUL 300213Z 3002/3024 12007KT P6SM BKN035 
     FM300600 VRB03KT 6SM -SHRA OVC025 
     FM300700 VRB03KT 3SM -SHRA BR OVC025 
     FM301200 16005KT P6SM BKN025 
     FM301600 17009KT P6SM BKN035